createdAt,value
2023-05-13T00:01:57.670Z,94576.91
2023-05-13T00:04:24.364Z,94565.41
2023-05-13T00:06:51.643Z,94571.53
2023-05-13T00:09:18.377Z,94570.75
2023-05-13T00:11:45.307Z,94576.09
2023-05-13T00:14:12.261Z,94570.59
2023-05-13T00:16:39.348Z,94577.25
2023-05-13T00:19:06.309Z,94576.47
2023-05-13T00:21:33.827Z,94569.16
2023-05-13T00:24:01.252Z,94575.88
2023-05-13T00:26:28.028Z,94570.56
2023-05-13T00:28:54.772Z,94569.44
2023-05-13T00:31:22.233Z,94570.75
2023-05-13T00:33:48.992Z,94564.69
2023-05-13T00:36:16.338Z,94567.28
2023-05-13T00:38:44.425Z,94570.63
2023-05-13T00:41:12.295Z,94570.56
2023-05-13T00:43:39.404Z,94573.75
2023-05-13T00:46:06.443Z,94577.97
2023-05-13T00:48:34.675Z,94577.50
2023-05-13T00:51:01.843Z,94570.91
2023-05-13T00:53:28.584Z,94579.41
2023-05-13T00:55:55.774Z,94577.19
2023-05-13T00:58:22.531Z,94574.03
2023-05-13T01:01:10.520Z,94585.84
2023-05-13T01:03:43.271Z,94584.78
2023-05-13T01:06:16.333Z,94581.44
2023-05-13T01:09:03.236Z,94577.91
2023-05-13T01:11:41.731Z,94580.81
2023-05-13T01:14:15.016Z,94580.19
2023-05-13T01:17:14.496Z,94576.03
2023-05-13T01:19:47.056Z,94577.47
2023-05-13T01:22:14.298Z,94577.47
2023-05-13T01:24:41.785Z,94581.13
2023-05-13T01:27:09.105Z,94577.19
2023-05-13T01:29:37.927Z,94577.19
2023-05-13T01:32:06.581Z,94575.66
2023-05-13T01:34:35.164Z,94582.28
2023-05-13T01:37:02.087Z,94585.75
2023-05-13T01:39:30.603Z,94588.06
2023-05-13T01:42:00.332Z,94587.06
2023-05-13T01:44:27.614Z,94587.75
2023-05-13T01:46:54.504Z,94592.09
2023-05-13T01:49:21.748Z,94598.16
2023-05-13T01:51:48.516Z,94586.56
2023-05-13T01:54:15.409Z,94585.00
2023-05-13T01:56:47.765Z,94589.50
2023-05-13T01:59:14.903Z,94592.63
2023-05-13T02:01:42.517Z,94588.22
2023-05-13T02:04:09.273Z,94584.91
2023-05-13T02:06:36.536Z,94589.59
2023-05-13T02:09:03.589Z,94595.28
2023-05-13T02:11:30.763Z,94586.59
2023-05-13T02:13:57.605Z,94585.22
2023-05-13T02:16:24.386Z,94589.34
2023-05-13T02:18:52.133Z,94592.00
2023-05-13T02:21:18.959Z,94588.53
2023-05-13T02:23:45.764Z,94581.13
2023-05-13T02:26:12.528Z,94590.41
2023-05-13T02:28:39.421Z,94589.47
2023-05-13T02:31:07.023Z,94591.81
2023-05-13T02:33:34.089Z,94585.97
2023-05-13T02:36:00.843Z,94582.72
2023-05-13T02:38:27.580Z,94578.31
2023-05-13T02:40:54.610Z,94577.94
2023-05-13T02:43:23.598Z,94577.25
2023-05-13T02:45:56.479Z,94582.88
2023-05-13T02:48:23.542Z,94590.13
2023-05-13T02:50:50.948Z,94578.41
2023-05-13T02:53:17.660Z,94572.47
2023-05-13T02:55:51.265Z,94579.81
2023-05-13T02:58:18.512Z,94577.63
2023-05-13T03:00:47.452Z,94580.53
2023-05-13T03:03:14.251Z,94581.50
2023-05-13T03:05:41.309Z,94579.28
2023-05-13T03:08:08.408Z,94577.66
2023-05-13T03:10:35.275Z,94580.56
2023-05-13T03:13:02.357Z,94578.78
2023-05-13T03:15:29.308Z,94575.78
2023-05-13T03:17:56.377Z,94580.69
2023-05-13T03:20:23.830Z,94579.91
2023-05-13T03:22:51.134Z,94586.81
2023-05-13T03:25:17.916Z,94585.41
2023-05-13T03:27:49.044Z,94586.50
2023-05-13T03:30:17.831Z,94586.59
2023-05-13T03:32:51.375Z,94584.59
2023-05-13T03:35:18.201Z,94593.56
2023-05-13T03:37:45.063Z,94593.44
2023-05-13T03:40:13.339Z,94597.19
2023-05-13T03:42:41.474Z,94590.88
2023-05-13T03:45:09.266Z,94593.44
2023-05-13T03:47:39.456Z,94594.19
2023-05-13T03:50:10.712Z,94597.69
2023-05-13T03:52:43.989Z,94599.53
2023-05-13T03:55:14.930Z,94601.31
2023-05-13T03:57:45.165Z,94610.31
2023-05-13T04:00:12.782Z,94599.31
2023-05-13T04:02:42.185Z,94602.56
2023-05-13T04:05:10.430Z,94607.44
2023-05-13T04:07:37.672Z,94602.22
2023-05-13T04:10:05.042Z,94616.59
2023-05-13T04:12:33.409Z,94612.81
2023-05-13T04:15:00.813Z,94616.41
2023-05-13T04:17:28.869Z,94617.69
2023-05-13T04:19:56.015Z,94623.16
2023-05-13T04:22:24.949Z,94622.06
2023-05-13T04:24:56.695Z,94618.19
2023-05-13T04:27:24.345Z,94619.81
2023-05-13T04:29:55.578Z,94625.06
2023-05-13T04:32:23.310Z,94627.81
2023-05-13T04:34:53.703Z,94633.34
2023-05-13T04:37:21.063Z,94625.22
2023-05-13T04:39:49.186Z,94639.69
2023-05-13T04:42:18.184Z,94633.75
2023-05-13T04:44:44.969Z,94634.56
2023-05-13T04:47:12.136Z,94633.66
2023-05-13T04:49:38.847Z,94630.25
2023-05-13T04:52:07.107Z,94635.94
2023-05-13T04:54:35.988Z,94628.53
2023-05-13T04:57:03.508Z,94642.91
2023-05-13T04:59:31.116Z,94634.97
2023-05-13T05:01:58.509Z,94649.84
2023-05-13T05:04:25.915Z,94651.25
2023-05-13T05:06:53.606Z,94646.13
2023-05-13T05:09:20.447Z,94644.63
2023-05-13T05:11:50.666Z,94650.94
2023-05-13T05:14:20.321Z,94658.38
2023-05-13T05:16:48.934Z,94649.53
2023-05-13T05:19:15.705Z,94656.13
2023-05-13T05:21:42.734Z,94664.31
2023-05-13T05:24:11.040Z,94665.94
2023-05-13T05:26:37.747Z,94672.38
2023-05-13T05:29:06.260Z,94672.81
2023-05-13T05:31:33.505Z,94673.00
2023-05-13T05:34:02.441Z,94664.50
2023-05-13T05:36:29.716Z,94665.19
2023-05-13T05:38:56.478Z,94674.31
2023-05-13T05:41:30.038Z,94670.50
2023-05-13T05:43:57.299Z,94676.50
2023-05-13T05:46:24.174Z,94670.88
2023-05-13T05:48:51.552Z,94684.69
2023-05-13T05:51:18.786Z,94672.78
2023-05-13T05:53:45.542Z,94678.88
2023-05-13T05:56:13.619Z,94677.41
2023-05-13T05:58:41.397Z,94682.94
2023-05-13T06:01:08.754Z,94680.84
2023-05-13T06:03:36.250Z,94682.44
2023-05-13T06:06:04.212Z,94686.09
2023-05-13T06:08:31.048Z,94692.50
2023-05-13T06:10:58.434Z,94680.66
2023-05-13T06:13:26.526Z,94673.97
2023-05-13T06:15:53.307Z,94678.03
2023-05-13T06:18:20.176Z,94684.03
2023-05-13T06:20:47.329Z,94677.13
2023-05-13T06:23:15.086Z,94681.66
2023-05-13T06:25:42.093Z,94684.94
2023-05-13T06:28:11.271Z,94684.78
2023-05-13T06:30:39.403Z,94687.19
2023-05-13T06:33:06.316Z,94687.63
2023-05-13T06:35:33.145Z,94689.75
2023-05-13T06:38:03.102Z,94689.41
2023-05-13T06:40:30.020Z,94706.44
2023-05-13T06:42:57.083Z,94690.81
2023-05-13T06:45:29.692Z,94690.81
2023-05-13T06:47:57.416Z,94692.78
2023-05-13T06:50:24.911Z,94696.47
2023-05-13T06:52:52.231Z,94695.97
2023-05-13T06:55:19.883Z,94695.75
2023-05-13T06:57:47.329Z,94694.94
2023-05-13T07:00:15.607Z,94696.66
2023-05-13T07:02:42.658Z,94690.53
2023-05-13T07:05:11.788Z,94704.03
2023-05-13T07:07:39.722Z,94701.09
2023-05-13T07:10:06.700Z,94694.56
2023-05-13T07:12:33.739Z,94705.88
2023-05-13T07:15:00.558Z,94706.75
2023-05-13T07:17:27.542Z,94709.38
2023-05-13T07:19:54.898Z,94701.97
2023-05-13T07:22:21.648Z,94700.00
2023-05-13T07:24:48.719Z,94710.34
2023-05-13T07:27:15.560Z,94705.59
2023-05-13T07:29:42.299Z,94706.22
2023-05-13T07:32:09.127Z,94712.06
2023-05-13T07:34:36.089Z,94714.44
2023-05-13T07:37:05.255Z,94708.00
2023-05-13T07:39:31.996Z,94709.75
2023-05-13T07:41:58.885Z,94716.31
2023-05-13T07:44:26.181Z,94712.25
2023-05-13T07:46:55.272Z,94714.25
2023-05-13T07:49:22.133Z,94711.34
2023-05-13T07:51:49.257Z,94713.97
2023-05-13T07:54:16.011Z,94713.53
2023-05-13T07:56:44.332Z,94713.53
2023-05-13T07:59:11.688Z,94722.84
2023-05-13T08:01:38.399Z,94724.53
2023-05-13T08:04:05.807Z,94721.16
2023-05-13T08:06:33.086Z,94717.31
2023-05-13T08:09:00.022Z,94722.63
2023-05-13T08:11:27.546Z,94719.66
2023-05-13T08:13:55.580Z,94726.75
2023-05-13T08:16:22.407Z,94724.66
2023-05-13T08:18:49.388Z,94720.94
2023-05-13T08:21:16.312Z,94723.59
2023-05-13T08:23:45.911Z,94726.03
2023-05-13T08:26:14.197Z,94725.69
2023-05-13T08:28:42.275Z,94729.41
2023-05-13T08:31:12.173Z,94722.06
2023-05-13T08:33:40.721Z,94719.13
2023-05-13T08:36:08.147Z,94726.59
2023-05-13T08:38:34.994Z,94718.91
2023-05-13T08:41:04.961Z,94721.88
2023-05-13T08:43:32.969Z,94728.13
2023-05-13T08:46:06.420Z,94730.16
2023-05-13T08:48:34.085Z,94728.38
2023-05-13T08:51:04.805Z,94727.09
2023-05-13T08:53:31.880Z,94728.84
2023-05-13T08:56:00.394Z,94723.44
2023-05-13T08:58:27.911Z,94733.88
2023-05-13T09:00:55.086Z,94739.56
2023-05-13T09:03:22.013Z,94740.06
2023-05-13T09:05:48.778Z,94739.47
2023-05-13T09:08:15.832Z,94737.88
2023-05-13T09:10:43.338Z,94735.94
2023-05-13T09:13:12.520Z,94742.91
2023-05-13T09:15:43.228Z,94737.81
2023-05-13T09:18:10.224Z,94735.94
2023-05-13T09:20:37.203Z,94737.34
2023-05-13T09:23:08.264Z,94738.78
2023-05-13T09:25:36.544Z,94743.84
2023-05-13T09:28:06.183Z,94733.88
2023-05-13T09:30:40.283Z,94737.09
2023-05-13T09:33:20.378Z,94735.91
2023-05-13T09:35:53.725Z,94731.81
2023-05-13T09:38:25.210Z,94730.00
2023-05-13T09:41:03.371Z,94730.78
2023-05-13T09:43:34.044Z,94731.03
2023-05-13T09:46:05.519Z,94738.22
2023-05-13T09:48:33.622Z,94740.16
2023-05-13T09:51:00.439Z,94743.72
2023-05-13T09:53:28.792Z,94742.31
2023-05-13T09:55:57.796Z,94740.16
2023-05-13T09:58:28.053Z,94737.66
2023-05-13T10:00:55.505Z,94745.88
2023-05-13T10:03:22.540Z,94737.03
2023-05-13T10:05:53.675Z,94745.81
2023-05-13T10:08:21.767Z,94744.97
2023-05-13T10:10:50.668Z,94745.22
2023-05-13T10:13:23.513Z,94747.47
2023-05-13T10:15:51.577Z,94750.31
2023-05-13T10:18:20.858Z,94741.06
2023-05-13T10:20:53.250Z,94762.78
2023-05-13T10:23:22.626Z,94729.38
2023-05-13T10:25:52.001Z,94741.09
2023-05-13T10:28:19.584Z,94751.13
2023-05-13T10:30:46.600Z,94745.56
2023-05-13T10:33:14.055Z,94745.50
2023-05-13T10:35:49.979Z,94751.00
2023-05-13T10:38:22.513Z,94741.44
2023-05-13T10:41:12.155Z,94749.91
2023-05-13T10:43:38.995Z,94740.00
2023-05-13T10:46:08.374Z,94741.72
2023-05-13T10:48:49.489Z,94749.38
2023-05-13T10:51:18.803Z,94753.59
2023-05-13T10:53:53.979Z,94763.88
2023-05-13T10:56:22.485Z,94761.94
2023-05-13T10:59:04.233Z,94756.72
2023-05-13T11:01:35.120Z,94753.59
2023-05-13T11:04:04.841Z,94761.56
2023-05-13T11:06:37.280Z,94759.59
2023-05-13T11:09:08.916Z,94757.78
2023-05-13T11:11:36.654Z,94758.06
2023-05-13T11:14:25.012Z,94749.63
2023-05-13T11:17:09.414Z,94767.25
2023-05-13T11:19:39.003Z,94762.09
2023-05-13T11:22:24.313Z,94766.13
2023-05-13T11:25:09.299Z,94761.50
2023-05-13T11:27:41.529Z,94760.84
2023-05-13T11:30:21.955Z,94762.34
2023-05-13T11:32:57.018Z,94768.44
2023-05-13T11:35:26.524Z,94766.28
2023-05-13T11:37:55.532Z,94773.75
2023-05-13T11:40:25.226Z,94769.00
2023-05-13T11:42:52.979Z,94763.16
2023-05-13T11:45:21.637Z,94764.59
2023-05-13T11:47:48.701Z,94767.97
2023-05-13T11:50:18.773Z,94778.22
2023-05-13T11:52:51.434Z,94772.41
2023-05-13T11:55:30.132Z,94771.53
2023-05-13T11:57:58.940Z,94777.38
2023-05-13T12:00:32.977Z,94762.56
2023-05-13T12:03:01.739Z,94772.63
2023-05-13T12:05:30.373Z,94764.63
2023-05-13T12:07:58.479Z,94781.13
2023-05-13T12:10:26.856Z,94769.25
2023-05-13T12:12:54.391Z,94767.28
2023-05-13T12:15:22.418Z,94783.72
2023-05-13T12:17:50.299Z,94768.50
2023-05-13T12:20:24.599Z,94771.56
2023-05-13T12:22:53.552Z,94758.34
2023-05-13T12:25:40.082Z,94777.09
2023-05-13T12:28:18.139Z,94730.28
2023-05-13T12:30:56.355Z,94744.66
2023-05-13T12:33:25.592Z,94764.44
2023-05-13T12:35:54.609Z,94764.19
2023-05-13T12:38:24.136Z,94765.53
2023-05-13T12:40:52.469Z,94772.41
2023-05-13T12:43:20.342Z,94758.69
2023-05-13T12:45:53.522Z,94765.47
2023-05-13T12:48:23.802Z,94774.78
2023-05-13T12:50:51.495Z,94754.72
2023-05-13T12:53:18.592Z,94766.38
2023-05-13T12:55:45.312Z,94774.81
2023-05-13T12:58:13.609Z,94767.66
2023-05-13T13:00:40.597Z,94743.03
2023-05-13T13:03:08.080Z,94741.84
2023-05-13T13:05:35.413Z,94762.97
2023-05-13T13:08:05.234Z,94770.38
2023-05-13T13:10:32.470Z,94782.41
2023-05-13T13:12:59.206Z,94764.56
2023-05-13T13:15:26.124Z,94776.56
2023-05-13T13:17:52.883Z,94758.94
2023-05-13T13:20:19.728Z,94773.19
2023-05-13T13:22:46.508Z,94769.88
2023-05-13T13:25:13.923Z,94767.06
2023-05-13T13:27:40.929Z,94745.44
2023-05-13T13:30:08.136Z,94754.09
2023-05-13T13:32:37.692Z,94756.38
2023-05-13T13:35:05.670Z,94745.13
2023-05-13T13:37:32.768Z,94748.03
2023-05-13T13:39:59.944Z,94730.81
2023-05-13T13:42:40.175Z,94747.63
2023-05-13T13:45:11.248Z,94755.16
2023-05-13T13:47:38.570Z,94742.66
2023-05-13T13:50:06.425Z,94737.97
2023-05-13T13:52:33.169Z,94719.53
2023-05-13T13:55:00.656Z,94727.03
2023-05-13T13:57:27.944Z,94759.59
2023-05-13T13:59:54.693Z,94720.66
2023-05-13T14:02:22.020Z,94744.56
2023-05-13T14:04:48.916Z,94744.91
2023-05-13T14:07:15.912Z,94722.00
2023-05-13T14:09:43.097Z,94724.25
2023-05-13T14:12:09.865Z,94717.31
2023-05-13T14:14:36.601Z,94735.47
2023-05-13T14:17:03.516Z,94749.94
2023-05-13T14:19:30.613Z,94714.50
2023-05-13T14:21:57.400Z,94717.47
2023-05-13T14:24:24.543Z,94696.00
2023-05-13T14:26:51.365Z,94713.19
2023-05-13T14:29:18.313Z,94734.44
2023-05-13T14:31:45.567Z,94723.78
2023-05-13T14:34:12.395Z,94722.00
2023-05-13T14:36:39.387Z,94722.63
2023-05-13T14:39:09.134Z,94720.16
2023-05-13T14:41:36.002Z,94732.69
2023-05-13T14:44:03.203Z,94723.94
2023-05-13T14:46:30.682Z,94730.09
2023-05-13T14:48:57.412Z,94708.31
2023-05-13T14:51:24.336Z,94719.16
2023-05-13T14:53:51.060Z,94712.84
2023-05-13T14:56:18.217Z,94707.75
2023-05-13T14:58:45.149Z,94719.22
2023-05-13T15:01:11.947Z,94713.91
2023-05-13T15:03:38.834Z,94714.91
2023-05-13T15:06:06.382Z,94715.47
2023-05-13T15:08:33.491Z,94718.13
2023-05-13T15:11:00.991Z,94721.66
2023-05-13T15:13:28.875Z,94702.63
2023-05-13T15:15:56.070Z,94717.72
2023-05-13T15:18:23.031Z,94713.34
2023-05-13T15:20:49.898Z,94708.47
2023-05-13T15:23:16.615Z,94707.19
2023-05-13T15:25:43.905Z,94699.41
2023-05-13T15:28:10.761Z,94717.25
2023-05-13T15:30:38.839Z,94724.69
2023-05-13T15:33:05.782Z,94714.06
2023-05-13T15:35:32.646Z,94702.34
2023-05-13T15:38:00.243Z,94712.56
2023-05-13T15:40:27.108Z,94706.31
2023-05-13T15:42:54.331Z,94700.06
2023-05-13T15:45:21.326Z,94712.72
2023-05-13T15:47:48.202Z,94703.94
2023-05-13T15:50:15.674Z,94702.38
2023-05-13T15:52:42.423Z,94695.19
2023-05-13T15:55:09.178Z,94678.75
2023-05-13T15:57:35.982Z,94695.38
2023-05-13T16:00:02.827Z,94678.63
2023-05-13T16:02:37.562Z,94681.78
2023-05-13T16:05:04.790Z,94688.78
2023-05-13T16:07:31.920Z,94694.28
2023-05-13T16:09:58.675Z,94693.69
2023-05-13T16:12:25.805Z,94702.22
2023-05-13T16:14:52.508Z,94696.81
2023-05-13T16:17:19.505Z,94687.41
2023-05-13T16:19:46.648Z,94711.44
2023-05-13T16:22:33.466Z,94697.38
2023-05-13T16:25:02.078Z,94689.28
2023-05-13T16:27:29.819Z,94689.97
2023-05-13T16:29:58.004Z,94687.84
2023-05-13T16:32:25.568Z,94691.25
2023-05-13T16:34:52.418Z,94672.72
2023-05-13T16:37:19.697Z,94671.22
2023-05-13T16:39:47.146Z,94671.69
2023-05-13T16:42:13.958Z,94668.91
2023-05-13T16:44:41.357Z,94686.63
2023-05-13T16:47:11.508Z,94686.78
2023-05-13T16:49:38.370Z,94664.66
2023-05-13T16:52:05.966Z,94669.19
2023-05-13T16:54:33.103Z,94678.59
2023-05-13T16:57:00.437Z,94675.84
2023-05-13T16:59:28.432Z,94681.16
2023-05-13T17:01:55.917Z,94683.25
2023-05-13T17:04:22.866Z,94684.69
2023-05-13T17:06:50.063Z,94693.94
2023-05-13T17:09:17.293Z,94672.50
2023-05-13T17:11:44.173Z,94690.00
2023-05-13T17:14:11.463Z,94677.63
2023-05-13T17:16:38.810Z,94667.06
2023-05-13T17:19:05.656Z,94681.44
2023-05-13T17:21:32.943Z,94670.53
2023-05-13T17:24:00.184Z,94683.91
2023-05-13T17:26:27.842Z,94665.63
2023-05-13T17:28:54.932Z,94662.63
2023-05-13T17:31:23.366Z,94661.22
2023-05-13T17:33:50.327Z,94643.41
2023-05-13T17:36:17.686Z,94669.06
2023-05-13T17:38:44.421Z,94659.63
2023-05-13T17:41:11.643Z,94684.56
2023-05-13T17:43:38.575Z,94666.00
2023-05-13T17:46:05.380Z,94661.38
2023-05-13T17:48:33.277Z,94668.56
2023-05-13T17:51:00.555Z,94684.28
2023-05-13T17:53:27.486Z,94676.31
2023-05-13T17:55:54.296Z,94684.16
2023-05-13T17:58:21.123Z,94685.34
2023-05-13T18:00:49.185Z,94680.56
2023-05-13T18:03:17.033Z,94681.03
2023-05-13T18:05:43.971Z,94670.69
2023-05-13T18:08:10.987Z,94684.28
2023-05-13T18:10:38.242Z,94675.22
2023-05-13T18:13:05.899Z,94681.75
2023-05-13T18:15:33.305Z,94679.88
2023-05-13T18:18:01.092Z,94688.09
2023-05-13T18:20:28.008Z,94694.09
2023-05-13T18:22:54.741Z,94693.41
2023-05-13T18:25:21.587Z,94691.84
2023-05-13T18:27:50.451Z,94690.75
2023-05-13T18:30:18.577Z,94689.53
2023-05-13T18:32:46.126Z,94693.22
2023-05-13T18:35:12.911Z,94692.91
2023-05-13T18:37:39.619Z,94686.97
2023-05-13T18:40:07.084Z,94691.00
2023-05-13T18:42:33.859Z,94698.63
2023-05-13T18:45:01.100Z,94698.88
2023-05-13T18:47:27.934Z,94699.97
2023-05-13T18:49:54.899Z,94701.00
2023-05-13T18:52:21.796Z,94708.91
2023-05-13T18:54:48.928Z,94709.94
2023-05-13T18:57:16.562Z,94720.16
2023-05-13T18:59:43.685Z,94736.63
2023-05-13T19:02:10.548Z,94742.19
2023-05-13T19:04:38.011Z,94751.53
2023-05-13T19:07:05.273Z,94754.94
2023-05-13T19:09:34.203Z,94746.84
2023-05-13T19:12:01.337Z,94727.22
2023-05-13T19:14:28.296Z,94739.00
2023-05-13T19:16:55.735Z,94755.34
2023-05-13T19:19:24.183Z,94755.75
2023-05-13T19:21:51.512Z,94745.25
2023-05-13T19:24:18.604Z,94755.59
2023-05-13T19:26:45.624Z,94727.50
2023-05-13T19:29:12.987Z,94747.41
2023-05-13T19:31:40.159Z,94752.31
2023-05-13T19:34:07.740Z,94757.13
2023-05-13T19:36:34.583Z,94765.69
2023-05-13T19:39:02.182Z,94759.66
2023-05-13T19:41:29.551Z,94753.75
2023-05-13T19:43:56.893Z,94746.91
2023-05-13T19:46:23.804Z,94752.53
2023-05-13T19:48:50.709Z,94751.03
2023-05-13T19:51:18.226Z,94750.47
2023-05-13T19:53:44.979Z,94748.66
2023-05-13T19:56:11.848Z,94750.56
2023-05-13T19:58:38.614Z,94748.28
2023-05-13T20:01:05.454Z,94734.09
2023-05-13T20:03:34.182Z,94737.59
2023-05-13T20:06:02.165Z,94742.06
2023-05-13T20:08:31.992Z,94730.38
2023-05-13T20:10:59.432Z,94740.44
2023-05-13T20:13:26.247Z,94733.63
2023-05-13T20:15:53.251Z,94734.53
2023-05-13T20:18:20.029Z,94736.09
2023-05-13T20:20:48.630Z,94726.44
2023-05-13T20:23:15.372Z,94728.28
2023-05-13T20:25:42.282Z,94728.31
2023-05-13T20:28:09.125Z,94728.72
2023-05-13T20:30:35.864Z,94726.75
2023-05-13T20:33:02.580Z,94721.00
2023-05-13T20:35:29.402Z,94730.19
2023-05-13T20:37:57.336Z,94728.69
2023-05-13T20:40:24.896Z,94728.97
2023-05-13T20:42:52.467Z,94719.38
2023-05-13T20:45:19.693Z,94726.13
2023-05-13T20:47:46.673Z,94714.69
2023-05-13T20:50:14.028Z,94718.84
2023-05-13T20:52:40.896Z,94713.28
2023-05-13T20:55:08.172Z,94713.69
2023-05-13T20:57:35.525Z,94711.16
2023-05-13T21:00:02.839Z,94713.72
2023-05-13T21:02:29.763Z,94706.44
2023-05-13T21:04:56.677Z,94704.59
2023-05-13T21:07:23.514Z,94697.78
2023-05-13T21:09:50.423Z,94701.47
2023-05-13T21:12:17.103Z,94698.16
2023-05-13T21:14:44.407Z,94699.72
2023-05-13T21:17:11.712Z,94690.50
2023-05-13T21:19:38.544Z,94692.50
2023-05-13T21:22:06.050Z,94690.94
2023-05-13T21:24:33.128Z,94688.59
2023-05-13T21:26:59.881Z,94686.94
2023-05-13T21:29:26.745Z,94686.06
2023-05-13T21:31:54.541Z,94678.41
2023-05-13T21:34:21.601Z,94681.09
2023-05-13T21:36:48.310Z,94677.63
2023-05-13T21:39:15.187Z,94679.25
2023-05-13T21:41:41.998Z,94673.31
2023-05-13T21:44:09.009Z,94682.66
2023-05-13T21:46:36.198Z,94676.16
2023-05-13T21:49:03.578Z,94682.59
2023-05-13T21:51:33.244Z,94689.22
2023-05-13T21:54:00.011Z,94685.09
2023-05-13T21:56:26.796Z,94680.78
2023-05-13T21:58:53.769Z,94682.09
2023-05-13T22:01:21.262Z,94690.00
2023-05-13T22:03:48.545Z,94674.53
2023-05-13T22:06:18.687Z,94680.00
2023-05-13T22:08:45.794Z,94674.34
2023-05-13T22:11:12.728Z,94675.38
2023-05-13T22:13:41.456Z,94689.09
2023-05-13T22:16:08.486Z,94677.56
2023-05-13T22:18:36.015Z,94679.91
2023-05-13T22:21:02.965Z,94687.28
2023-05-13T22:23:30.046Z,94691.66
2023-05-13T22:25:56.796Z,94688.75
2023-05-13T22:28:23.739Z,94689.63
2023-05-13T22:30:55.347Z,94676.72
2023-05-13T22:33:22.229Z,94673.38
2023-05-13T22:35:48.994Z,94673.53
2023-05-13T22:38:16.267Z,94677.72
2023-05-13T22:40:43.017Z,94678.38
2023-05-13T22:43:10.148Z,94689.56
2023-05-13T22:45:37.366Z,94681.94
2023-05-13T22:48:04.201Z,94676.38
2023-05-13T22:50:31.538Z,94677.22
2023-05-13T22:52:58.296Z,94679.56
2023-05-13T22:55:25.303Z,94678.94
2023-05-13T22:57:52.114Z,94678.75
2023-05-13T23:00:19.101Z,94676.66
2023-05-13T23:02:45.900Z,94676.72
2023-05-13T23:05:12.644Z,94672.31
2023-05-13T23:07:39.417Z,94668.72
2023-05-13T23:10:07.439Z,94672.31
2023-05-13T23:12:34.421Z,94666.63
2023-05-13T23:15:01.421Z,94660.31
2023-05-13T23:17:28.217Z,94664.50
2023-05-13T23:19:55.246Z,94662.53
2023-05-13T23:22:21.953Z,94666.13
2023-05-13T23:24:49.404Z,94663.25
2023-05-13T23:27:16.124Z,94658.88
2023-05-13T23:29:43.085Z,94654.34
2023-05-13T23:32:09.914Z,94649.38
2023-05-13T23:34:36.727Z,94649.00
2023-05-13T23:37:15.708Z,94648.38
2023-05-13T23:39:42.516Z,94646.09
2023-05-13T23:42:09.247Z,94649.47
2023-05-13T23:44:36.032Z,94648.00
2023-05-13T23:47:02.836Z,94643.38
2023-05-13T23:49:29.596Z,94648.06
2023-05-13T23:51:56.730Z,94650.41
2023-05-13T23:54:23.659Z,94641.13
2023-05-13T23:56:51.036Z,94646.03
2023-05-13T23:59:17.711Z,94649.47
